createdAt,value
2017-09-14T00:00:17.260Z,991.28
2017-09-14T00:00:57.825Z,991.37
2017-09-14T00:01:38.404Z,991.29
2017-09-14T00:02:18.960Z,991.31
2017-09-14T00:02:59.524Z,991.34
2017-09-14T00:03:40.081Z,991.37
2017-09-14T00:04:20.642Z,991.37
2017-09-14T00:05:01.219Z,991.26
2017-09-14T00:05:41.781Z,991.18
2017-09-14T00:06:22.347Z,991.21
2017-09-14T00:07:02.902Z,991.23
2017-09-14T00:07:43.459Z,991.28
2017-09-14T00:08:24.005Z,991.28
2017-09-14T00:09:04.559Z,991.27
2017-09-14T00:09:45.125Z,991.32
2017-09-14T00:10:25.694Z,991.32
2017-09-14T00:11:06.261Z,991.35
2017-09-14T00:11:46.838Z,991.3
2017-09-14T00:12:27.383Z,991.31
2017-09-14T00:13:07.956Z,991.41
2017-09-14T00:13:48.522Z,991.39
2017-09-14T00:14:29.082Z,991.42
2017-09-14T00:15:09.620Z,991.5
2017-09-14T00:15:50.203Z,991.47
2017-09-14T00:16:30.773Z,991.4
2017-09-14T00:17:11.341Z,991.38
2017-09-14T00:17:51.906Z,991.41
2017-09-14T00:18:32.454Z,991.41
2017-09-14T00:19:13.021Z,991.46
2017-09-14T00:19:53.582Z,991.39
2017-09-14T00:20:34.122Z,991.39
2017-09-14T00:21:14.679Z,991.5
2017-09-14T00:21:55.254Z,991.42
2017-09-14T00:22:35.812Z,991.39
2017-09-14T00:23:16.382Z,991.45
2017-09-14T00:23:56.946Z,991.45
2017-09-14T00:24:37.499Z,991.35
2017-09-14T00:25:18.066Z,991.31
2017-09-14T00:25:58.633Z,991.31
2017-09-14T00:26:39.206Z,991.4
2017-09-14T00:27:19.757Z,991.43
2017-09-14T00:28:00.307Z,991.54
2017-09-14T00:28:40.880Z,991.53
2017-09-14T00:29:21.449Z,991.41
2017-09-14T00:30:02.017Z,991.33
2017-09-14T00:30:42.577Z,991.26
2017-09-14T00:31:23.139Z,991.28
2017-09-14T00:32:03.705Z,991.49
2017-09-14T00:32:44.270Z,991.59
2017-09-14T00:33:24.820Z,991.6
2017-09-14T00:34:05.373Z,991.54
2017-09-14T00:34:45.922Z,991.55
2017-09-14T00:35:26.495Z,991.52
2017-09-14T00:36:07.056Z,991.54
2017-09-14T00:36:47.625Z,991.64
2017-09-14T00:37:28.182Z,991.67
2017-09-14T00:38:08.764Z,991.68
2017-09-14T00:38:49.322Z,991.64
2017-09-14T00:39:29.883Z,991.62
2017-09-14T00:40:10.456Z,991.64
2017-09-14T00:40:50.996Z,991.72
2017-09-14T00:41:31.562Z,991.73
2017-09-14T00:42:12.118Z,991.63
2017-09-14T00:42:52.688Z,991.58
2017-09-14T00:43:33.252Z,991.51
2017-09-14T00:44:13.814Z,991.56
2017-09-14T00:44:54.382Z,991.66
2017-09-14T00:45:34.953Z,991.59
2017-09-14T00:46:15.521Z,991.51
2017-09-14T00:46:56.073Z,991.56
2017-09-14T00:47:36.637Z,991.57
2017-09-14T00:48:17.174Z,991.71
2017-09-14T00:48:57.719Z,991.72
2017-09-14T00:49:38.275Z,991.74
2017-09-14T00:50:18.841Z,991.76
2017-09-14T00:50:59.406Z,991.83
2017-09-14T00:51:39.988Z,991.94
2017-09-14T00:52:20.553Z,992.02
2017-09-14T00:53:01.109Z,992.11
2017-09-14T00:53:41.662Z,992.11
2017-09-14T00:54:22.215Z,992.13
2017-09-14T00:55:02.777Z,992.13
2017-09-14T00:55:43.351Z,992.1
2017-09-14T00:56:23.923Z,992.05
2017-09-14T00:57:04.508Z,992.08
2017-09-14T00:57:45.055Z,992.06
2017-09-14T00:58:25.628Z,992.03
2017-09-14T00:59:06.193Z,992.06
2017-09-14T00:59:46.741Z,992.13
2017-09-14T01:00:27.312Z,992.17
2017-09-14T01:01:07.882Z,992.25
2017-09-14T01:01:48.451Z,992.25
2017-09-14T01:02:29.022Z,992.23
2017-09-14T01:03:09.587Z,992.17
2017-09-14T01:03:50.145Z,992.19
2017-09-14T01:04:30.702Z,992.17
2017-09-14T01:05:11.247Z,992.1
2017-09-14T01:05:51.839Z,992.08
2017-09-14T01:06:32.413Z,992.1
2017-09-14T01:07:12.983Z,992.13
2017-09-14T01:07:53.538Z,992.06
2017-09-14T01:08:34.088Z,992
2017-09-14T01:09:14.645Z,991.99
2017-09-14T01:09:55.192Z,992.01
2017-09-14T01:10:35.753Z,992.04
2017-09-14T01:11:16.308Z,992.04
2017-09-14T01:11:56.879Z,992.04
2017-09-14T01:12:37.450Z,992.01
2017-09-14T01:13:18.010Z,991.99
2017-09-14T01:13:58.568Z,992.06
2017-09-14T01:14:39.125Z,992.04
2017-09-14T01:15:19.682Z,992.04
2017-09-14T01:16:00.255Z,992.07
2017-09-14T01:16:40.819Z,992.08
2017-09-14T01:17:21.368Z,992.13
2017-09-14T01:18:01.944Z,992.09
2017-09-14T01:18:42.516Z,992.11
2017-09-14T01:19:23.072Z,992.18
2017-09-14T01:20:03.636Z,992.22
2017-09-14T01:20:44.210Z,992.21
2017-09-14T01:21:24.778Z,992.26
2017-09-14T01:22:05.332Z,992.21
2017-09-14T01:22:45.880Z,992.14
2017-09-14T01:23:26.436Z,992.08
2017-09-14T01:24:07.036Z,992.07
2017-09-14T01:24:47.613Z,992.1
2017-09-14T01:25:28.162Z,992.09
2017-09-14T01:26:08.721Z,992.07
2017-09-14T01:26:49.296Z,992.15
2017-09-14T01:27:29.872Z,992.12
2017-09-14T01:28:10.443Z,992.15
2017-09-14T01:28:51.026Z,992.18
2017-09-14T01:29:31.607Z,992.18
2017-09-14T01:30:12.168Z,992.16
2017-09-14T01:30:52.747Z,992.22
2017-09-14T01:31:33.340Z,992.21
2017-09-14T01:32:13.899Z,992.14
2017-09-14T01:32:54.495Z,992.15
2017-09-14T01:33:35.048Z,992.14
2017-09-14T01:34:15.609Z,992.15
2017-09-14T01:34:56.168Z,992.18
2017-09-14T01:35:36.747Z,992.17
2017-09-14T01:36:17.301Z,992.24
2017-09-14T01:36:57.853Z,992.27
2017-09-14T01:37:38.441Z,992.36
2017-09-14T01:38:18.996Z,992.38
2017-09-14T01:38:59.574Z,992.29
2017-09-14T01:39:40.127Z,992.31
2017-09-14T01:40:20.699Z,992.3
2017-09-14T01:41:01.261Z,992.36
2017-09-14T01:41:41.829Z,992.38
2017-09-14T01:42:22.405Z,992.3
2017-09-14T01:43:02.972Z,992.34
2017-09-14T01:43:43.548Z,992.4
2017-09-14T01:44:24.112Z,992.32
2017-09-14T01:45:04.670Z,992.2
2017-09-14T01:45:45.240Z,992.18
2017-09-14T01:46:25.801Z,992.15
2017-09-14T01:47:06.363Z,992.15
2017-09-14T01:47:46.925Z,992.17
2017-09-14T01:48:27.488Z,992.2
2017-09-14T01:49:08.050Z,992.26
2017-09-14T01:49:48.617Z,992.23
2017-09-14T01:50:29.182Z,992.19
2017-09-14T01:51:09.737Z,992.15
2017-09-14T01:51:50.305Z,992.19
2017-09-14T01:52:30.869Z,992.18
2017-09-14T01:53:11.425Z,992.17
2017-09-14T01:53:51.992Z,992.18
2017-09-14T01:54:32.562Z,992.18
2017-09-14T01:55:13.146Z,992.25
2017-09-14T01:55:53.706Z,992.25
2017-09-14T01:56:34.278Z,992.34
2017-09-14T01:57:14.846Z,992.41
2017-09-14T01:57:55.410Z,992.44
2017-09-14T01:58:35.982Z,992.41
2017-09-14T01:59:16.547Z,992.36
2017-09-14T01:59:57.116Z,992.24
2017-09-14T02:00:37.697Z,992.18
2017-09-14T02:01:18.263Z,992.23
2017-09-14T02:01:58.817Z,992.19
2017-09-14T02:02:39.378Z,992.19
2017-09-14T02:03:19.942Z,992.19
2017-09-14T02:04:00.514Z,992.2
2017-09-14T02:04:41.086Z,992.22
2017-09-14T02:05:21.659Z,992.22
2017-09-14T02:06:02.221Z,992.25
2017-09-14T02:06:42.780Z,992.19
2017-09-14T02:07:23.348Z,992.25
2017-09-14T02:08:03.907Z,992.35
2017-09-14T02:08:44.491Z,992.39
2017-09-14T02:09:25.026Z,992.36
2017-09-14T02:10:05.601Z,992.45
2017-09-14T02:10:46.159Z,992.44
2017-09-14T02:11:26.711Z,992.51
2017-09-14T02:12:07.280Z,992.49
2017-09-14T02:12:47.840Z,992.55
2017-09-14T02:13:28.423Z,992.51
2017-09-14T02:14:08.972Z,992.48
2017-09-14T02:14:49.534Z,992.49
2017-09-14T02:15:30.099Z,992.41
2017-09-14T02:16:10.664Z,992.45
2017-09-14T02:16:51.220Z,992.41
2017-09-14T02:17:31.775Z,992.4
2017-09-14T02:18:12.325Z,992.46
2017-09-14T02:18:52.888Z,992.5
2017-09-14T02:19:33.435Z,992.44
2017-09-14T02:20:14.031Z,992.34
2017-09-14T02:20:54.592Z,992.19
2017-09-14T02:21:35.167Z,992.17
2017-09-14T02:22:15.732Z,992.24
2017-09-14T02:22:56.275Z,992.26
2017-09-14T02:23:36.828Z,992.13
2017-09-14T02:24:17.378Z,992.1
2017-09-14T02:24:57.936Z,992.17
2017-09-14T02:25:38.485Z,992.32
2017-09-14T02:26:19.054Z,992.36
2017-09-14T02:26:59.580Z,992.4
2017-09-14T02:27:40.144Z,992.37
2017-09-14T02:28:20.715Z,992.4
2017-09-14T02:29:01.285Z,992.44
2017-09-14T02:29:41.841Z,992.48
2017-09-14T02:30:22.396Z,992.46
2017-09-14T02:31:02.959Z,992.53
2017-09-14T02:31:43.532Z,992.45
2017-09-14T02:32:24.103Z,992.52
2017-09-14T02:33:04.673Z,992.59
2017-09-14T02:33:45.244Z,992.67
2017-09-14T02:34:25.846Z,992.74
2017-09-14T02:35:06.386Z,992.84
2017-09-14T02:35:46.932Z,992.84
2017-09-14T02:36:27.484Z,992.94
2017-09-14T02:37:08.034Z,993.01
2017-09-14T02:37:48.578Z,993.01
2017-09-14T02:38:29.127Z,992.96
2017-09-14T02:39:09.690Z,992.94
2017-09-14T02:39:50.246Z,992.9
2017-09-14T02:40:30.795Z,992.84
2017-09-14T02:41:11.353Z,992.82
2017-09-14T02:41:51.903Z,992.77
2017-09-14T02:42:32.461Z,992.75
2017-09-14T02:43:13.009Z,992.75
2017-09-14T02:43:53.562Z,992.79
2017-09-14T02:44:34.084Z,992.81
2017-09-14T02:45:14.657Z,992.85
2017-09-14T02:45:55.256Z,992.89
2017-09-14T02:46:35.824Z,992.86
2017-09-14T02:47:16.405Z,992.9
2017-09-14T02:47:57.030Z,992.93
2017-09-14T02:48:37.607Z,992.87
2017-09-14T02:49:18.163Z,992.92
2017-09-14T02:49:58.727Z,992.96
2017-09-14T02:50:39.327Z,992.96
2017-09-14T02:51:19.880Z,993.01
2017-09-14T02:52:00.445Z,993.11
2017-09-14T02:52:41.005Z,993.16
2017-09-14T02:53:21.560Z,993.18
2017-09-14T02:54:02.120Z,993.32
2017-09-14T02:54:42.676Z,993.35
2017-09-14T02:55:23.226Z,993.46
2017-09-14T02:56:03.773Z,993.47
2017-09-14T02:56:44.338Z,993.58
2017-09-14T02:57:24.906Z,993.55
2017-09-14T02:58:05.474Z,993.5
2017-09-14T02:58:46.037Z,993.46
2017-09-14T02:59:26.593Z,993.4
2017-09-14T03:00:07.153Z,993.4
2017-09-14T03:00:47.715Z,993.39
2017-09-14T03:01:28.259Z,993.4
2017-09-14T03:02:08.819Z,993.36
2017-09-14T03:02:49.389Z,993.41
2017-09-14T03:03:29.962Z,993.38
2017-09-14T03:04:10.512Z,993.39
2017-09-14T03:04:51.070Z,993.42
2017-09-14T03:05:31.630Z,993.42
2017-09-14T03:06:12.193Z,993.41
2017-09-14T03:06:52.758Z,993.41
2017-09-14T03:07:33.312Z,993.5
2017-09-14T03:08:13.876Z,993.51
2017-09-14T03:08:54.432Z,993.49
2017-09-14T03:09:34.988Z,993.52
2017-09-14T03:10:15.573Z,993.41
2017-09-14T03:10:56.136Z,993.39
2017-09-14T03:11:36.737Z,993.31
2017-09-14T03:12:17.302Z,993.23
2017-09-14T03:12:57.889Z,993.13
2017-09-14T03:13:38.432Z,993.11
2017-09-14T03:14:19.029Z,993.13
2017-09-14T03:14:59.585Z,993.09
2017-09-14T03:15:40.128Z,993.04
2017-09-14T03:16:20.689Z,993.02
2017-09-14T03:17:01.249Z,992.92
2017-09-14T03:17:41.804Z,992.9
2017-09-14T03:18:22.376Z,992.92
2017-09-14T03:19:02.976Z,992.96
2017-09-14T03:19:43.526Z,992.97
2017-09-14T03:20:24.090Z,993.03
2017-09-14T03:21:04.647Z,992.99
2017-09-14T03:21:45.206Z,993
2017-09-14T03:22:25.779Z,993.1
2017-09-14T03:23:06.359Z,993.06
2017-09-14T03:23:46.915Z,993.05
2017-09-14T03:24:27.471Z,993.13
2017-09-14T03:25:08.046Z,993.13
2017-09-14T03:25:48.597Z,993.14
2017-09-14T03:26:29.174Z,993.04
2017-09-14T03:27:09.746Z,992.97
2017-09-14T03:27:50.317Z,992.91
2017-09-14T03:28:30.882Z,992.89
2017-09-14T03:29:11.444Z,992.9
2017-09-14T03:29:52.010Z,992.86
2017-09-14T03:30:32.591Z,992.96
2017-09-14T03:31:13.142Z,992.99
2017-09-14T03:31:53.717Z,992.97
2017-09-14T03:32:34.283Z,992.93
2017-09-14T03:33:14.841Z,992.91
2017-09-14T03:33:55.409Z,992.9
2017-09-14T03:34:35.973Z,992.95
2017-09-14T03:35:16.516Z,992.96
2017-09-14T03:35:57.088Z,993.03
2017-09-14T03:36:37.654Z,993.09
2017-09-14T03:37:18.253Z,993.16
2017-09-14T03:37:58.773Z,993.18
2017-09-14T03:38:39.333Z,993.17
2017-09-14T03:39:19.893Z,993.15
2017-09-14T03:40:00.457Z,993.16
2017-09-14T03:40:41.016Z,993.12
2017-09-14T03:41:21.564Z,993.13
2017-09-14T03:42:02.125Z,993.03
2017-09-14T03:42:42.687Z,993.05
2017-09-14T03:43:23.225Z,993.05
2017-09-14T03:44:03.789Z,993.02
2017-09-14T03:44:44.330Z,993
2017-09-14T03:45:24.891Z,993.03
2017-09-14T03:46:05.446Z,993.07
2017-09-14T03:46:46.006Z,993.09
2017-09-14T03:47:26.558Z,993.01
2017-09-14T03:48:07.147Z,993.07
2017-09-14T03:48:47.716Z,993.08
2017-09-14T03:49:28.415Z,993.03
2017-09-14T03:50:08.979Z,993.02
2017-09-14T03:50:49.534Z,992.94
2017-09-14T03:51:30.093Z,992.92
2017-09-14T03:52:10.622Z,992.87
2017-09-14T03:52:51.192Z,992.89
2017-09-14T03:53:31.783Z,992.93
2017-09-14T03:54:12.351Z,992.86
2017-09-14T03:54:52.916Z,992.82
2017-09-14T03:55:33.496Z,992.68
2017-09-14T03:56:14.070Z,992.57
2017-09-14T03:56:54.649Z,992.6
2017-09-14T03:57:35.210Z,992.68
2017-09-14T03:58:15.783Z,992.8
2017-09-14T03:58:56.348Z,992.84
2017-09-14T03:59:36.916Z,992.82
2017-09-14T04:00:17.478Z,992.81
2017-09-14T04:00:58.029Z,992.84
2017-09-14T04:01:38.590Z,992.85
2017-09-14T04:02:19.145Z,992.88
2017-09-14T04:02:59.718Z,992.87
2017-09-14T04:03:40.285Z,992.91
2017-09-14T04:04:20.857Z,992.9
2017-09-14T04:05:01.435Z,992.89
2017-09-14T04:05:42.014Z,992.84
2017-09-14T04:06:22.578Z,992.84
2017-09-14T04:07:03.139Z,992.86
2017-09-14T04:07:43.680Z,992.88
2017-09-14T04:08:24.259Z,992.89
2017-09-14T04:09:04.837Z,992.87
2017-09-14T04:09:45.383Z,992.82
2017-09-14T04:10:25.949Z,992.85
2017-09-14T04:11:06.487Z,992.78
2017-09-14T04:11:47.049Z,992.71
2017-09-14T04:12:27.611Z,992.66
2017-09-14T04:13:08.163Z,992.7
2017-09-14T04:13:48.706Z,992.78
2017-09-14T04:14:29.266Z,992.8
2017-09-14T04:15:09.854Z,992.81
2017-09-14T04:15:50.401Z,992.76
2017-09-14T04:16:30.973Z,992.81
2017-09-14T04:17:11.571Z,992.84
2017-09-14T04:17:52.126Z,992.84
2017-09-14T04:18:32.694Z,992.85
2017-09-14T04:19:13.250Z,992.83
2017-09-14T04:19:53.813Z,992.87
2017-09-14T04:20:34.393Z,992.96
2017-09-14T04:21:14.964Z,993.03
2017-09-14T04:21:55.551Z,993.14
2017-09-14T04:22:36.108Z,993.15
2017-09-14T04:23:16.676Z,993.15
2017-09-14T04:23:57.226Z,993.22
2017-09-14T04:24:37.777Z,993.14
2017-09-14T04:25:18.315Z,993.17
2017-09-14T04:25:58.878Z,993.23
2017-09-14T04:26:39.420Z,993.22
2017-09-14T04:27:20.026Z,993.22
2017-09-14T04:28:00.605Z,993.19
2017-09-14T04:28:41.176Z,993.24
2017-09-14T04:29:21.748Z,993.18
2017-09-14T04:30:02.293Z,993.18
2017-09-14T04:30:42.868Z,993.16
2017-09-14T04:31:23.433Z,993.15
2017-09-14T04:32:04.001Z,993.12
2017-09-14T04:32:44.555Z,993.17
2017-09-14T04:33:25.119Z,993.06
2017-09-14T04:34:05.701Z,993
2017-09-14T04:34:46.255Z,993.01
2017-09-14T04:35:26.784Z,993.04
2017-09-14T04:36:07.337Z,993.12
2017-09-14T04:36:47.900Z,993.17
2017-09-14T04:37:28.467Z,993.15
2017-09-14T04:38:09.018Z,993.17
2017-09-14T04:38:49.563Z,993.11
2017-09-14T04:39:30.103Z,993.14
2017-09-14T04:40:10.660Z,993.15
2017-09-14T04:40:51.242Z,993.17
2017-09-14T04:41:31.798Z,993.17
2017-09-14T04:42:12.377Z,993.09
2017-09-14T04:42:52.931Z,993.04
2017-09-14T04:43:33.490Z,993.06
2017-09-14T04:44:14.072Z,993.12
2017-09-14T04:44:54.667Z,993.26
2017-09-14T04:45:35.236Z,993.36
2017-09-14T04:46:15.821Z,993.31
2017-09-14T04:46:56.401Z,993.28
2017-09-14T04:47:36.976Z,993.23
2017-09-14T04:48:17.562Z,993.18
2017-09-14T04:48:58.116Z,993.18
2017-09-14T04:49:38.673Z,993.18
2017-09-14T04:50:19.243Z,993.11
2017-09-14T04:50:59.767Z,992.99
2017-09-14T04:51:40.326Z,992.96
2017-09-14T04:52:20.897Z,992.84
2017-09-14T04:53:01.486Z,992.74
2017-09-14T04:53:42.023Z,992.77
2017-09-14T04:54:22.572Z,992.81
2017-09-14T04:55:03.117Z,992.78
2017-09-14T04:55:43.695Z,992.74
2017-09-14T04:56:24.287Z,992.82
2017-09-14T04:57:04.861Z,992.83
2017-09-14T04:57:45.429Z,992.86
2017-09-14T04:58:25.985Z,992.83
2017-09-14T04:59:06.573Z,992.83
2017-09-14T04:59:47.140Z,992.79
2017-09-14T05:00:27.682Z,992.84
2017-09-14T05:01:08.236Z,992.9
2017-09-14T05:01:48.780Z,992.93
2017-09-14T05:02:29.346Z,993.05
2017-09-14T05:03:09.908Z,993.05
2017-09-14T05:03:50.483Z,993.06
2017-09-14T05:04:31.029Z,993.05
2017-09-14T05:05:11.613Z,993.02
2017-09-14T05:05:52.190Z,992.98
2017-09-14T05:06:32.752Z,993.01
2017-09-14T05:07:13.321Z,992.98
2017-09-14T05:07:53.898Z,993
2017-09-14T05:08:34.528Z,992.99
2017-09-14T05:09:15.098Z,992.94
2017-09-14T05:09:55.651Z,992.95
2017-09-14T05:10:36.242Z,992.93
2017-09-14T05:11:16.811Z,992.97
2017-09-14T05:11:58.282Z,992.99
2017-09-14T05:12:38.634Z,993
2017-09-14T05:13:19.197Z,992.93
2017-09-14T05:13:59.731Z,992.94
2017-09-14T05:14:40.276Z,993
2017-09-14T05:15:20.835Z,992.95
2017-09-14T05:16:01.420Z,992.92
2017-09-14T05:16:41.971Z,992.92
2017-09-14T05:17:22.546Z,992.89
2017-09-14T05:18:03.752Z,992.91
2017-09-14T05:18:43.657Z,993
2017-09-14T05:19:24.204Z,992.93
2017-09-14T05:20:04.770Z,992.95
2017-09-14T05:20:45.345Z,993
2017-09-14T05:21:25.885Z,993.04
2017-09-14T05:22:06.429Z,993.01
2017-09-14T05:22:46.991Z,993
2017-09-14T05:23:27.536Z,992.99
2017-09-14T05:24:08.335Z,993
2017-09-14T05:24:48.900Z,993.06
2017-09-14T05:25:29.527Z,993.06
2017-09-14T05:26:10.054Z,993.08
2017-09-14T05:26:50.793Z,993.15
2017-09-14T05:27:31.325Z,993.03
2017-09-14T05:28:11.870Z,993.05
2017-09-14T05:28:52.426Z,993.04
2017-09-14T05:29:32.970Z,993.12
2017-09-14T05:30:13.515Z,993.13
2017-09-14T05:30:54.063Z,993.12
2017-09-14T05:31:34.622Z,993.18
2017-09-14T05:32:15.208Z,993.17
2017-09-14T05:32:55.787Z,993.16
2017-09-14T05:33:36.287Z,993.15
2017-09-14T05:34:16.877Z,993.05
2017-09-14T05:34:57.411Z,993.04
2017-09-14T05:35:37.941Z,993.08
2017-09-14T05:36:18.484Z,993.08
2017-09-14T05:36:59.143Z,993.09
2017-09-14T05:37:39.685Z,993.12
2017-09-14T05:38:20.248Z,993.06
2017-09-14T05:39:00.817Z,993.08
2017-09-14T05:39:41.374Z,993.1
2017-09-14T05:40:21.916Z,993.08
2017-09-14T05:41:02.454Z,993.09
2017-09-14T05:41:43.000Z,993.06
2017-09-14T05:42:23.550Z,993.07
2017-09-14T05:43:04.087Z,993.03
2017-09-14T05:43:44.649Z,993.04
2017-09-14T05:44:25.191Z,993
2017-09-14T05:45:05.760Z,993.01
2017-09-14T05:45:46.914Z,992.98
2017-09-14T05:46:27.467Z,993.06
2017-09-14T05:47:08.045Z,993.12
2017-09-14T05:47:48.555Z,993.13
2017-09-14T05:48:29.114Z,993.11
2017-09-14T05:49:09.679Z,993.16
2017-09-14T05:49:50.186Z,993.18
2017-09-14T05:50:30.716Z,993.16
2017-09-14T05:51:11.284Z,993.18
2017-09-14T05:51:51.807Z,993.15
2017-09-14T05:52:32.307Z,993.11
2017-09-14T05:53:12.878Z,993.12
2017-09-14T05:53:53.434Z,993.08
2017-09-14T05:54:33.974Z,993.2
2017-09-14T05:55:14.501Z,993.19
2017-09-14T05:55:54.998Z,993.15
2017-09-14T05:56:35.558Z,993.21
2017-09-14T05:57:16.117Z,993.28
2017-09-14T05:57:56.626Z,993.26
2017-09-14T05:58:37.218Z,993.17
2017-09-14T05:59:17.728Z,993.29
2017-09-14T05:59:58.234Z,993.28
2017-09-14T06:00:38.788Z,993.3
2017-09-14T06:01:19.357Z,993.26
2017-09-14T06:02:00.623Z,993.27
2017-09-14T06:02:41.375Z,993.2
2017-09-14T06:03:21.999Z,993.22
2017-09-14T06:04:02.536Z,993.17
2017-09-14T06:04:43.090Z,993.16
2017-09-14T06:05:23.639Z,993.05
2017-09-14T06:06:04.180Z,993.06
2017-09-14T06:06:44.762Z,993.05
2017-09-14T06:07:25.333Z,993.02
2017-09-14T06:08:05.853Z,993.05
2017-09-14T06:08:46.457Z,993.04
2017-09-14T06:09:26.910Z,992.96
2017-09-14T06:10:07.486Z,992.99
2017-09-14T06:10:48.061Z,992.92
2017-09-14T06:11:28.614Z,992.94
2017-09-14T06:12:09.173Z,992.94
2017-09-14T06:12:49.744Z,992.95
2017-09-14T06:13:30.299Z,992.91
2017-09-14T06:14:10.844Z,992.86
2017-09-14T06:14:51.424Z,992.87
2017-09-14T06:15:31.970Z,992.83
2017-09-14T06:16:12.528Z,992.86
2017-09-14T06:16:53.092Z,992.82
2017-09-14T06:17:33.654Z,992.81
2017-09-14T06:18:14.238Z,992.83
2017-09-14T06:18:54.789Z,992.81
2017-09-14T06:19:35.359Z,992.84
2017-09-14T06:20:15.916Z,992.9
2017-09-14T06:20:56.459Z,992.9
2017-09-14T06:21:37.029Z,992.96
2017-09-14T06:22:17.584Z,993
2017-09-14T06:22:58.128Z,993.01
2017-09-14T06:23:38.682Z,993
2017-09-14T06:24:19.232Z,992.97
2017-09-14T06:24:59.794Z,992.95
2017-09-14T06:25:40.361Z,992.97
2017-09-14T06:26:20.903Z,993.06
2017-09-14T06:27:01.518Z,993.02
2017-09-14T06:27:42.056Z,993.01
2017-09-14T06:28:22.593Z,993.09
2017-09-14T06:29:03.147Z,993.12
2017-09-14T06:31:31.761Z,993.05
2017-09-14T06:32:12.321Z,993.05
2017-09-14T06:32:52.916Z,993.09
2017-09-14T06:33:33.464Z,993.15
2017-09-14T06:34:13.999Z,993.2
2017-09-14T06:34:54.549Z,993.25
2017-09-14T06:35:35.094Z,993.33
2017-09-14T06:36:15.673Z,993.27
2017-09-14T06:36:56.247Z,993.29
2017-09-14T06:37:36.800Z,993.25
2017-09-14T06:38:17.336Z,993.2
2017-09-14T06:38:57.886Z,993.31
2017-09-14T06:39:38.410Z,993.34
2017-09-14T06:40:19.005Z,993.29
2017-09-14T06:40:59.659Z,993.27
2017-09-14T06:41:40.184Z,993.29
2017-09-14T06:42:20.701Z,993.25
2017-09-14T06:43:01.269Z,993.23
2017-09-14T06:43:41.823Z,993.24
2017-09-14T06:44:22.351Z,993.32
2017-09-14T06:45:02.920Z,993.32
2017-09-14T06:45:43.456Z,993.31
2017-09-14T06:46:24.008Z,993.26
2017-09-14T06:47:04.602Z,993.28
2017-09-14T06:47:45.192Z,993.29
2017-09-14T06:48:25.715Z,993.3
2017-09-14T06:49:06.254Z,993.29
2017-09-14T06:49:46.822Z,993.22
2017-09-14T06:50:27.363Z,993.22
2017-09-14T06:51:07.896Z,993.23
2017-09-14T06:51:48.450Z,993.29
2017-09-14T06:52:28.956Z,993.32
2017-09-14T06:53:09.508Z,993.29
2017-09-14T06:53:50.054Z,993.26
2017-09-14T06:54:30.595Z,993.25
2017-09-14T06:55:11.128Z,993.27
2017-09-14T06:55:51.649Z,993.31
2017-09-14T06:56:32.228Z,993.31
2017-09-14T06:57:12.805Z,993.32
2017-09-14T06:57:53.355Z,993.26
2017-09-14T06:58:33.928Z,993.32
2017-09-14T06:59:14.473Z,993.25
2017-09-14T06:59:55.026Z,993.27
2017-09-14T07:00:35.550Z,993.33
2017-09-14T07:01:16.070Z,993.42
2017-09-14T07:01:56.588Z,993.44
2017-09-14T07:02:37.181Z,993.47
2017-09-14T07:03:17.729Z,993.48
2017-09-14T07:03:58.247Z,993.43
2017-09-14T07:04:38.808Z,993.52
2017-09-14T07:05:19.423Z,993.53
2017-09-14T07:05:59.937Z,993.59
2017-09-14T07:06:40.456Z,993.59
2017-09-14T07:07:21.012Z,993.63
2017-09-14T07:08:01.538Z,993.71
2017-09-14T07:08:42.049Z,993.75
2017-09-14T07:09:22.605Z,993.65
2017-09-14T07:10:03.117Z,993.75
2017-09-14T07:10:43.649Z,993.69
2017-09-14T07:11:24.237Z,993.58
2017-09-14T07:12:04.722Z,993.52
2017-09-14T07:12:45.237Z,993.48
2017-09-14T07:13:25.778Z,993.54
2017-09-14T07:14:06.305Z,993.53
2017-09-14T07:14:46.842Z,993.44
2017-09-14T07:15:27.341Z,993.46
2017-09-14T07:16:07.882Z,993.46
2017-09-14T07:16:48.402Z,993.49
2017-09-14T07:17:28.944Z,993.49
2017-09-14T07:18:09.516Z,993.48
2017-09-14T07:18:50.076Z,993.44
2017-09-14T07:19:30.590Z,993.46
2017-09-14T07:20:11.166Z,993.48
2017-09-14T07:20:51.732Z,993.6
2017-09-14T07:21:32.288Z,993.59
2017-09-14T07:22:12.840Z,993.6
2017-09-14T07:22:53.365Z,993.63
2017-09-14T07:23:33.904Z,993.6
2017-09-14T07:24:14.434Z,993.64
2017-09-14T07:24:54.989Z,993.65
2017-09-14T07:25:35.539Z,993.62
2017-09-14T07:26:16.097Z,993.59
2017-09-14T07:26:56.657Z,993.56
2017-09-14T07:27:37.210Z,993.62
2017-09-14T07:28:17.810Z,993.65
2017-09-14T07:28:58.305Z,993.73
2017-09-14T07:29:38.914Z,993.92
2017-09-14T07:30:19.421Z,994.07
2017-09-14T07:31:00.022Z,994.08
2017-09-14T07:31:40.537Z,994.05
2017-09-14T07:32:21.100Z,994.07
2017-09-14T07:33:01.661Z,994.06
2017-09-14T07:33:42.231Z,994.06
2017-09-14T07:34:22.807Z,994.14
2017-09-14T07:35:03.354Z,994.08
2017-09-14T07:35:43.852Z,994.09
2017-09-14T07:36:24.380Z,993.94
2017-09-14T07:37:04.945Z,994
2017-09-14T07:37:45.482Z,993.96
2017-09-14T07:38:25.994Z,994.07
2017-09-14T07:39:06.550Z,994.08
2017-09-14T07:39:47.128Z,994.11
2017-09-14T07:40:27.705Z,994.12
2017-09-14T07:41:08.274Z,994.17
2017-09-14T07:41:48.821Z,994.1
2017-09-14T07:42:29.334Z,994.16
2017-09-14T07:43:09.888Z,994.3
2017-09-14T07:43:50.475Z,994.4
2017-09-14T07:44:30.977Z,994.37
2017-09-14T07:45:11.568Z,994.42
2017-09-14T07:45:52.102Z,994.44
2017-09-14T07:46:32.654Z,994.47
2017-09-14T07:47:13.252Z,994.36
2017-09-14T07:47:53.782Z,994.26
2017-09-14T07:48:34.296Z,994.24
2017-09-14T07:49:14.842Z,994.2
2017-09-14T07:49:55.387Z,994.22
2017-09-14T07:50:35.956Z,994.35
2017-09-14T07:51:16.505Z,994.35
2017-09-14T07:51:57.058Z,994.35
2017-09-14T07:52:37.612Z,994.27
2017-09-14T07:53:18.167Z,994.19
2017-09-14T07:53:58.720Z,994.08
2017-09-14T07:54:39.260Z,994.06
2017-09-14T07:55:19.877Z,994.04
2017-09-14T07:56:00.417Z,993.95
2017-09-14T07:56:40.982Z,993.97
2017-09-14T07:57:21.556Z,993.96
2017-09-14T07:58:02.062Z,994.01
2017-09-14T07:58:42.619Z,994.07
2017-09-14T07:59:23.231Z,994.06
2017-09-14T08:00:03.781Z,994.07
2017-09-14T08:00:44.350Z,994.05
2017-09-14T08:01:24.900Z,994.13
2017-09-14T08:02:05.423Z,994.1
2017-09-14T08:02:45.980Z,994.07
2017-09-14T08:03:26.541Z,994.11
2017-09-14T08:04:07.105Z,994.11
2017-09-14T08:04:47.674Z,994.13
2017-09-14T08:05:28.220Z,994.1
2017-09-14T08:06:08.775Z,994.17
2017-09-14T08:06:49.299Z,994.19
2017-09-14T08:07:29.791Z,994.22
2017-09-14T08:08:10.318Z,994.19
2017-09-14T08:08:50.937Z,994.12
2017-09-14T08:09:31.500Z,994.11
2017-09-14T08:10:12.062Z,994.07
2017-09-14T08:10:52.621Z,994.09
2017-09-14T08:11:33.716Z,994.11
2017-09-14T08:12:13.710Z,994.19
2017-09-14T08:12:54.253Z,994.17
2017-09-14T08:13:34.849Z,994.19
2017-09-14T08:14:15.407Z,994.22
2017-09-14T08:14:56.049Z,994.19
2017-09-14T08:15:36.556Z,994.25
2017-09-14T08:16:17.116Z,994.31
2017-09-14T08:16:57.698Z,994.37
2017-09-14T08:17:38.259Z,994.38
2017-09-14T08:18:18.787Z,994.32
2017-09-14T08:18:59.337Z,994.31
2017-09-14T08:19:39.885Z,994.25
2017-09-14T08:20:20.440Z,994.23
2017-09-14T08:21:00.977Z,994.26
2017-09-14T08:21:41.516Z,994.25
2017-09-14T08:22:22.079Z,994.36
2017-09-14T08:23:02.635Z,994.43
2017-09-14T08:23:43.181Z,994.49
2017-09-14T08:24:23.725Z,994.5
2017-09-14T08:25:04.294Z,994.57
2017-09-14T08:25:44.847Z,994.62
2017-09-14T08:26:25.440Z,994.67
2017-09-14T08:27:05.997Z,994.72
2017-09-14T08:27:46.565Z,994.65
2017-09-14T08:28:27.131Z,994.74
2017-09-14T08:29:07.688Z,994.79
2017-09-14T08:29:48.229Z,994.89